Time;durP1;ratioP1;P1;durP2;ratioP2;P2;SDS_P1;SDS_P2;PMS_P1;PMS_P2;Temp;Humidity;BMP_temperature;BMP_pressure;BME280_temperature;BME280_humidity;BME280_pressure;Samples;Min_cycle;Max_cycle;Signal;HPM_P1;HPM_P2
2024/04/12 00:01:14;;;;;;;60.40;25.48;;;12.90;99.90;;;;;;5462515;26;19999;-73
2024/04/12 00:03:41;;;;;;;60.95;25.65;;;13.00;99.90;;;;;;5461532;26;20059;-73
2024/04/12 00:06:15;;;;;;;64.90;26.45;;;13.00;99.90;;;;;;5461958;26;20031;-74
2024/04/12 00:08:58;;;;;;;56.40;24.23;;;13.00;99.90;;;;;;5461919;26;20014;-75
2024/04/12 00:11:24;;;;;;;61.08;24.58;;;13.00;99.90;;;;;;5462438;26;20003;-72
2024/04/12 00:13:54;;;;;;;61.63;25.13;;;13.00;99.90;;;;;;5463053;26;20456;-74
2024/04/12 00:16:25;;;;;;;54.30;24.17;;;13.00;99.90;;;;;;5462221;26;20068;-74
2024/04/12 00:19:12;;;;;;;53.22;23.95;;;12.90;99.90;;;;;;5462728;26;20010;-73
2024/04/12 00:21:41;;;;;;;53.35;22.13;;;13.00;99.90;;;;;;5460782;26;20006;-73
2024/04/12 00:24:10;;;;;;;50.08;22.42;;;12.90;99.90;;;;;;5481681;26;20002;-73
2024/04/12 00:26:46;;;;;;;49.92;22.00;;;13.00;99.90;;;;;;5499204;26;20027;-73
2024/04/12 00:29:36;;;;;;;50.35;22.05;;;12.90;99.90;;;;;;5499187;26;20030;-73
2024/04/12 00:32:18;;;;;;;52.67;22.38;;;12.90;99.90;;;;;;5498534;26;20064;-74
2024/04/12 00:34:51;;;;;;;46.72;21.20;;;12.90;99.90;;;;;;5491895;26;19994;-71
2024/04/12 00:37:20;;;;;;;47.83;20.50;;;13.00;99.90;;;;;;5493851;26;19990;-73
2024/04/12 00:39:48;;;;;;;46.17;20.30;;;12.90;99.90;;;;;;5496822;26;20016;-72
2024/04/12 00:42:15;;;;;;;49.85;20.55;;;13.00;99.90;;;;;;5497174;26;19994;-72
2024/04/12 00:44:42;;;;;;;47.05;19.95;;;12.90;99.90;;;;;;5498342;26;20481;-73
2024/04/12 00:47:10;;;;;;;42.75;19.83;;;12.90;99.90;;;;;;5492392;26;20005;-73
2024/04/12 00:49:49;;;;;;;49.65;20.15;;;12.90;99.90;;;;;;5494781;26;20006;-72
2024/04/12 00:52:27;;;;;;;43.50;18.48;;;12.90;99.90;;;;;;5495189;26;20006;-73
2024/04/12 00:55:06;;;;;;;44.25;18.58;;;12.90;99.90;;;;;;5496728;26;20068;-74
2024/04/12 00:57:37;;;;;;;47.95;19.42;;;12.90;99.90;;;;;;5495186;26;19998;-73
2024/04/12 01:00:10;;;;;;;53.22;20.15;;;12.90;99.90;;;;;;5494313;26;19998;-73
2024/04/12 01:02:41;;;;;;;49.67;18.70;;;12.90;99.90;;;;;;5496012;26;20006;-73
2024/04/12 01:05:14;;;;;;;49.72;19.35;;;12.90;99.90;;;;;;5494014;26;20002;-73
2024/04/12 01:07:48;;;;;;;44.08;19.02;;;12.80;99.90;;;;;;5494187;26;20010;-73
2024/04/12 01:10:36;;;;;;;51.20;20.13;;;12.90;99.90;;;;;;5496686;26;20009;-71
2024/04/12 01:13:03;;;;;;;50.30;19.88;;;12.80;99.90;;;;;;5494804;26;20017;-73
2024/04/12 01:15:37;;;;;;;55.72;21.02;;;12.80;99.90;;;;;;5494545;26;20073;-74
2024/04/12 01:18:11;;;;;;;55.22;20.85;;;12.80;99.90;;;;;;5495125;26;20355;-73
2024/04/12 01:20:39;;;;;;;63.33;22.25;;;12.80;99.90;;;;;;5493555;26;20007;-74
2024/04/12 01:23:06;;;;;;;61.03;22.95;;;12.80;99.90;;;;;;5493929;26;20005;-73
2024/04/12 01:25:33;;;;;;;58.45;22.38;;;12.80;99.90;;;;;;5494878;26;19998;-73
2024/04/12 01:28:02;;;;;;;59.40;22.85;;;12.80;99.90;;;;;;5495051;26;20002;-72
2024/04/12 01:30:30;;;;;;;63.25;21.52;;;12.90;99.90;;;;;;5496611;26;20010;-73
2024/04/12 01:32:57;;;;;;;68.18;23.55;;;12.80;99.90;;;;;;5494821;26;20099;-73
2024/04/12 01:35:24;;;;;;;62.75;22.50;;;12.80;99.90;;;;;;5494243;26;19998;-74
2024/04/12 01:37:53;;;;;;;63.97;23.30;;;12.80;99.90;;;;;;5494614;26;20074;-73
2024/04/12 01:40:22;;;;;;;64.25;23.33;;;12.80;99.90;;;;;;5495273;26;20013;-74
2024/04/12 01:42:48;;;;;;;63.85;23.15;;;12.80;99.90;;;;;;5494376;26;20091;-74
2024/04/12 01:45:14;;;;;;;61.53;22.05;;;12.80;99.90;;;;;;5495331;26;19998;-73
2024/04/12 01:47:47;;;;;;;64.10;23.08;;;12.80;99.90;;;;;;5493961;26;20020;-73
2024/04/12 01:50:21;;;;;;;67.70;24.85;;;12.80;99.90;;;;;;5497050;26;20007;-73
2024/04/12 01:52:54;;;;;;;60.83;23.70;;;12.80;99.90;;;;;;5495903;26;20580;-72
2024/04/12 01:55:21;;;;;;;69.53;24.42;;;12.80;99.90;;;;;;5491338;26;20018;-73
2024/04/12 01:57:51;;;;;;;60.55;24.13;;;12.80;99.90;;;;;;5492901;26;20008;-71
2024/04/12 02:00:20;;;;;;;69.65;25.77;;;12.80;99.90;;;;;;5496521;26;20078;-73
2024/04/12 02:02:46;;;;;;;63.17;24.10;;;12.80;99.90;;;;;;5497022;26;19994;-72
2024/04/12 02:05:12;;;;;;;66.40;25.55;;;12.80;99.90;;;;;;5497211;26;19994;-72
2024/04/12 02:07:44;;;;;;;69.43;25.33;;;12.80;99.90;;;;;;5497602;26;20004;-72
2024/04/12 02:10:11;;;;;;;73.63;27.73;;;12.80;99.90;;;;;;5497397;26;20002;-72
2024/04/12 02:12:44;;;;;;;72.68;27.40;;;12.80;99.90;;;;;;5495225;26;20002;-72
2024/04/12 02:15:25;;;;;;;74.55;28.45;;;12.80;99.90;;;;;;5495951;26;20006;-73
2024/04/12 02:17:57;;;;;;;71.65;27.65;;;12.80;99.90;;;;;;5495322;26;20004;-73
2024/04/12 02:20:28;;;;;;;79.93;29.63;;;12.90;99.90;;;;;;5496901;26;20010;-74
2024/04/12 02:22:56;;;;;;;85.03;28.75;;;12.80;99.90;;;;;;5496630;26;19998;-72
2024/04/12 02:25:23;;;;;;;78.35;30.20;;;12.80;99.90;;;;;;5497147;26;20007;-73
2024/04/12 02:27:55;;;;;;;81.85;31.75;;;12.80;99.90;;;;;;5495756;26;20029;-73
2024/04/12 02:30:24;;;;;;;80.40;31.05;;;12.80;99.90;;;;;;5497157;26;20084;-73
2024/04/12 02:32:52;;;;;;;89.97;32.75;;;12.90;99.90;;;;;;5495425;26;20008;-73
2024/04/12 02:35:17;;;;;;;94.43;32.95;;;12.80;99.90;;;;;;5496315;26;20010;-72
2024/04/12 02:37:44;;;;;;;99.75;35.80;;;12.90;99.90;;;;;;5493376;26;20439;-73
2024/04/12 02:40:15;;;;;;;81.40;31.17;;;12.90;99.90;;;;;;5495672;26;20001;-73
2024/04/12 02:42:43;;;;;;;88.03;31.95;;;12.90;99.90;;;;;;5495315;26;20094;-73
2024/04/12 02:45:12;;;;;;;77.70;30.63;;;12.80;99.90;;;;;;5494257;26;20668;-74
2024/04/12 02:47:44;;;;;;;81.85;29.42;;;12.90;99.90;;;;;;5496521;26;20072;-73
2024/04/12 02:50:10;;;;;;;73.55;28.83;;;12.90;99.90;;;;;;5496334;26;20050;-74
2024/04/12 02:52:40;;;;;;;76.18;30.38;;;12.90;99.90;;;;;;5496113;26;20006;-73
2024/04/12 02:55:12;;;;;;;72.80;30.05;;;12.90;99.90;;;;;;5495323;26;20010;-73
2024/04/12 02:57:41;;;;;;;76.13;29.13;;;12.90;99.90;;;;;;5492576;26;20005;-72
2024/04/12 03:00:21;;;;;;;81.20;30.33;;;12.90;99.90;;;;;;5495616;26;20094;-72
2024/04/12 03:02:53;;;;;;;81.18;31.85;;;12.90;99.90;;;;;;5496300;26;20014;-71
2024/04/12 03:05:20;;;;;;;80.28;31.55;;;12.90;99.90;;;;;;5495895;26;20088;-74
2024/04/12 03:07:46;;;;;;;80.38;32.35;;;12.80;99.90;;;;;;5496254;26;20002;-72
2024/04/12 03:10:23;;;;;;;86.05;33.15;;;12.90;99.90;;;;;;5496327;26;20339;-72
2024/04/12 03:12:53;;;;;;;88.18;32.33;;;12.90;99.90;;;;;;5496843;26;19998;-72
2024/04/12 03:15:20;;;;;;;76.15;31.77;;;12.90;99.90;;;;;;5495893;26;19998;-72
2024/04/12 03:17:47;;;;;;;79.50;31.27;;;12.90;99.90;;;;;;5494209;26;20013;-72
2024/04/12 03:20:15;;;;;;;77.65;31.67;;;12.90;99.90;;;;;;5496597;26;20002;-73
2024/04/12 03:22:43;;;;;;;84.95;32.35;;;12.90;99.90;;;;;;5493830;26;20013;-73
2024/04/12 03:25:09;;;;;;;75.63;31.20;;;12.90;99.90;;;;;;5495070;26;20020;-70
2024/04/12 03:27:35;;;;;;;71.53;30.60;;;12.90;99.90;;;;;;5495839;26;20334;-71
2024/04/12 03:30:00;;;;;;;78.07;31.13;;;12.90;99.90;;;;;;5495549;26;20020;-71
2024/04/12 03:32:32;;;;;;;74.13;31.75;;;12.90;99.90;;;;;;5491876;26;20055;-70
2024/04/12 03:35:00;;;;;;;78.25;31.50;;;12.90;99.90;;;;;;5494978;26;20016;-73
2024/04/12 03:37:36;;;;;;;74.78;32.95;;;12.90;99.90;;;;;;5495840;26;20051;-71
2024/04/12 03:40:18;;;;;;;71.00;29.40;;;12.90;99.90;;;;;;5495440;26;20059;-72
2024/04/12 03:42:44;;;;;;;64.07;29.45;;;12.90;99.90;;;;;;5495835;26;20045;-71
2024/04/12 03:45:15;;;;;;;64.68;29.58;;;12.90;99.90;;;;;;5496413;26;20367;-72
2024/04/12 03:47:44;;;;;;;63.30;28.10;;;12.90;99.90;;;;;;5498224;26;20103;-72
2024/04/12 03:50:13;;;;;;;61.28;27.75;;;13.00;99.90;;;;;;5499393;26;20009;-70
2024/04/12 03:52:50;;;;;;;58.60;25.25;;;12.90;99.90;;;;;;5497387;26;19994;-74
2024/04/12 03:55:18;;;;;;;65.22;28.02;;;13.00;99.90;;;;;;5499135;26;20010;-71
2024/04/12 03:57:44;;;;;;;59.78;27.27;;;13.00;99.90;;;;;;5499231;26;20002;-73
2024/04/12 04:00:11;;;;;;;59.22;25.65;;;13.00;99.90;;;;;;5497877;26;20559;-73
2024/04/12 04:02:37;;;;;;;60.75;26.77;;;13.00;99.90;;;;;;5499904;26;19998;-71
2024/04/12 04:05:14;;;;;;;53.50;24.35;;;13.00;99.90;;;;;;5497951;26;20009;-71
2024/04/12 04:07:47;;;;;;;52.72;24.98;;;13.00;99.90;;;;;;5495969;26;19998;-74
2024/04/12 04:10:20;;;;;;;55.50;26.35;;;13.00;99.90;;;;;;5497385;26;20002;-72
2024/04/12 04:12:49;;;;;;;56.08;25.17;;;13.00;99.90;;;;;;5499711;26;20018;-72
2024/04/12 04:15:24;;;;;;;68.78;31.42;;;13.00;99.90;;;;;;5498178;26;20010;-73
2024/04/12 04:17:50;;;;;;;61.67;28.02;;;13.00;99.90;;;;;;5497921;26;20013;-73
2024/04/12 04:20:17;;;;;;;82.88;36.30;;;13.00;99.90;;;;;;5494904;26;20006;-72
2024/04/12 04:22:49;;;;;;;55.92;25.88;;;13.00;99.90;;;;;;5489621;26;20052;-72
2024/04/12 04:25:18;;;;;;;51.40;24.38;;;13.00;99.90;;;;;;5495141;26;20635;-71
2024/04/12 04:27:45;;;;;;;54.67;26.17;;;13.00;99.90;;;;;;5498395;26;20002;-72
2024/04/12 04:30:17;;;;;;;52.20;23.65;;;13.10;99.90;;;;;;5498618;26;20002;-72
2024/04/12 04:32:44;;;;;;;53.53;22.45;;;13.00;99.90;;;;;;5497118;26;20051;-73
2024/04/12 04:35:09;;;;;;;52.55;24.98;;;13.00;99.90;;;;;;5498249;26;20497;-72
2024/04/12 04:37:39;;;;;;;53.97;24.02;;;13.00;99.90;;;;;;5498656;26;20028;-73
2024/04/12 04:40:11;;;;;;;53.08;23.83;;;13.00;99.90;;;;;;5496677;26;20002;-72
2024/04/12 04:42:45;;;;;;;53.08;25.00;;;13.00;99.90;;;;;;5497610;26;20006;-72
2024/04/12 04:45:21;;;;;;;59.28;27.15;;;13.00;99.90;;;;;;5497346;26;20010;-71
2024/04/12 04:47:48;;;;;;;58.45;28.15;;;13.00;99.90;;;;;;5497507;26;20443;-72
2024/04/12 04:50:13;;;;;;;55.55;27.33;;;13.00;99.90;;;;;;5498940;26;19994;-72
2024/04/12 04:52:40;;;;;;;60.03;26.25;;;13.00;99.90;;;;;;5497290;26;20002;-73
2024/04/12 04:55:12;;;;;;;61.67;28.00;;;13.00;99.90;;;;;;5495897;26;19994;-72
2024/04/12 04:57:43;;;;;;;58.72;25.00;;;13.00;99.90;;;;;;5497752;26;20010;-72
2024/04/12 05:00:18;;;;;;;52.03;22.05;;;13.00;99.90;;;;;;5494918;26;20065;-75
2024/04/12 05:02:49;;;;;;;50.90;23.17;;;13.00;99.90;;;;;;5492825;26;20506;-71
2024/04/12 05:05:22;;;;;;;54.22;24.15;;;13.00;99.90;;;;;;5489548;26;20013;-72
2024/04/12 05:08:02;;;;;;;52.63;22.98;;;13.00;99.90;;;;;;5494475;26;20016;-72
2024/04/12 05:10:34;;;;;;;46.92;20.27;;;13.00;99.90;;;;;;5494411;26;20091;-72
2024/04/12 05:13:03;;;;;;;46.47;20.65;;;13.00;99.90;;;;;;5495318;26;20010;-76
2024/04/12 05:18:08;;;;;;;45.55;20.02;;;13.00;99.90;;;;;;5494688;26;20009;-74
2024/04/12 05:20:41;;;;;;;48.17;19.50;;;13.10;99.90;;;;;;5496747;26;20068;-73
2024/04/12 05:23:13;;;;;;;46.10;21.20;;;13.10;99.90;;;;;;5488287;26;19998;-74
2024/04/12 05:25:54;;;;;;;47.97;19.65;;;13.10;99.90;;;;;;5493744;26;20032;-74
2024/04/12 05:28:20;;;;;;;43.85;18.88;;;13.10;99.90;;;;;;5490066;26;20777;-74
2024/04/12 05:30:49;;;;;;;42.25;19.52;;;13.10;99.90;;;;;;5495349;26;19998;-74
2024/04/12 05:33:19;;;;;;;40.95;18.83;;;13.10;99.90;;;;;;5491140;26;19999;-72
2024/04/12 05:35:46;;;;;;;41.55;18.25;;;13.00;99.90;;;;;;5493515;26;20023;-72
2024/04/12 05:38:12;;;;;;;44.30;18.65;;;13.10;99.90;;;;;;5492903;26;20013;-72
2024/04/12 05:40:45;;;;;;;43.35;19.27;;;13.10;99.90;;;;;;5492939;26;20009;-71
2024/04/12 05:43:14;;;;;;;43.40;18.67;;;13.10;99.90;;;;;;5497288;26;20078;-72
2024/04/12 05:45:49;;;;;;;38.42;18.35;;;13.10;99.90;;;;;;5494223;26;19998;-71
2024/04/12 05:48:19;;;;;;;36.88;17.60;;;13.10;99.90;;;;;;5496706;26;20074;-73
2024/04/12 05:50:49;;;;;;;39.50;17.98;;;13.10;99.90;;;;;;5496886;26;20323;-72
2024/04/12 05:53:34;;;;;;;36.67;16.85;;;13.10;99.90;;;;;;5494887;26;19998;-73
2024/04/12 05:58:45;;;;;;;40.67;17.42;;;13.10;99.90;;;;;;5492001;26;20671;-74
2024/04/12 06:01:15;;;;;;;38.08;17.50;;;13.10;99.90;;;;;;5490835;26;20378;-72
2024/04/12 06:03:48;;;;;;;39.33;17.98;;;13.10;99.90;;;;;;5489441;26;20007;-73
2024/04/12 06:06:14;;;;;;;44.03;19.40;;;13.10;99.90;;;;;;5496306;26;19998;-76
2024/04/12 06:08:45;;;;;;;41.35;18.55;;;13.10;99.90;;;;;;5493059;26;20022;-73
2024/04/12 06:11:13;;;;;;;41.25;18.27;;;13.10;99.90;;;;;;5496185;26;20013;-72
2024/04/12 06:13:39;;;;;;;41.80;18.27;;;13.00;99.90;;;;;;5496502;26;20006;-73
2024/04/12 06:16:04;;;;;;;42.97;18.58;;;13.00;99.90;;;;;;5496461;26;20051;-73
2024/04/12 06:18:30;;;;;;;41.47;19.70;;;13.10;99.90;;;;;;5496233;26;19994;-73
2024/04/12 06:20:56;;;;;;;40.15;18.73;;;13.10;99.90;;;;;;5497539;26;19998;-73
2024/04/12 06:23:22;;;;;;;39.25;18.45;;;13.10;99.90;;;;;;5492176;26;20006;-72
2024/04/12 06:25:49;;;;;;;40.78;19.02;;;13.10;99.90;;;;;;5496161;26;20001;-73
2024/04/12 06:28:19;;;;;;;39.10;18.15;;;13.20;99.90;;;;;;5496686;26;20006;-72
2024/04/12 06:30:49;;;;;;;40.08;17.98;;;13.20;99.90;;;;;;5497494;26;19998;-72
2024/04/12 06:33:22;;;;;;;39.45;19.02;;;13.20;99.90;;;;;;5495813;26;20002;-71
2024/04/12 06:36:11;;;;;;;37.15;17.65;;;13.10;99.90;;;;;;5492964;26;20005;-72
2024/04/12 06:38:39;;;;;;;36.42;17.42;;;13.30;99.90;;;;;;5497562;26;20001;-72
2024/04/12 06:41:10;;;;;;;37.10;17.13;;;13.20;99.90;;;;;;5493222;26;20454;-73
2024/04/12 06:43:37;;;;;;;36.80;17.70;;;13.20;99.90;;;;;;5494706;26;19990;-74
2024/04/12 06:46:08;;;;;;;33.70;16.17;;;13.30;99.90;;;;;;5494578;26;20073;-72
2024/04/12 06:48:41;;;;;;;33.15;16.95;;;13.30;99.90;;;;;;5495466;26;20465;-73
2024/04/12 06:51:11;;;;;;;33.30;17.10;;;13.30;99.90;;;;;;5493619;26;20054;-73
2024/04/12 06:53:47;;;;;;;33.13;16.58;;;13.40;99.90;;;;;;5496262;26;20012;-72
2024/04/12 06:56:15;;;;;;;35.05;16.67;;;13.30;99.90;;;;;;5494391;26;20338;-74
2024/04/12 06:58:43;;;;;;;30.73;15.20;;;13.40;99.90;;;;;;5495371;26;20001;-74
2024/04/12 07:01:10;;;;;;;28.95;15.45;;;13.40;99.90;;;;;;5496344;26;20010;-73
2024/04/12 07:03:37;;;;;;;34.25;15.38;;;13.40;99.90;;;;;;5497005;26;19998;-75
2024/04/12 07:06:13;;;;;;;33.15;16.25;;;13.40;99.90;;;;;;5495715;26;19998;-74
2024/04/12 07:08:38;;;;;;;29.70;14.60;;;13.40;99.90;;;;;;5496561;26;20002;-72
2024/04/12 07:11:07;;;;;;;35.33;15.70;;;13.50;99.90;;;;;;5492373;26;20047;-71
2024/04/12 07:13:33;;;;;;;31.92;15.60;;;13.60;99.90;;;;;;5491547;26;19998;-71
2024/04/12 07:16:02;;;;;;;31.15;15.32;;;13.50;99.90;;;;;;5489404;26;19990;-73
2024/04/12 07:18:32;;;;;;;28.08;14.70;;;13.60;99.90;;;;;;5490385;26;20018;-72
2024/04/12 07:21:16;;;;;;;28.95;13.57;;;13.70;99.90;;;;;;5498308;26;20013;-73
2024/04/12 07:23:49;;;;;;;24.48;13.02;;;13.60;99.90;;;;;;5492889;26;20434;-72
2024/04/12 07:26:24;;;;;;;28.15;14.45;;;13.60;99.90;;;;;;5497336;26;20016;-72
2024/04/12 07:28:59;;;;;;;26.65;12.85;;;13.60;99.90;;;;;;5493474;26;20011;-72
2024/04/12 07:31:25;;;;;;;24.95;12.98;;;13.60;99.90;;;;;;5493788;26;22156;-76
2024/04/12 07:33:51;;;;;;;26.17;12.63;;;13.70;99.90;;;;;;5494791;26;20016;-75
2024/04/12 07:36:17;;;;;;;23.90;12.60;;;13.60;99.90;;;;;;5492795;26;19998;-74
2024/04/12 07:38:43;;;;;;;22.67;12.20;;;13.60;99.90;;;;;;5495903;26;20525;-72
2024/04/12 07:41:13;;;;;;;25.80;12.55;;;13.60;99.90;;;;;;5494524;26;20002;-73
2024/04/12 07:43:42;;;;;;;22.25;12.63;;;13.70;99.90;;;;;;5490226;26;20352;-74
2024/04/12 07:46:14;;;;;;;21.05;12.05;;;13.80;99.90;;;;;;5486357;26;20351;-72
2024/04/12 07:48:48;;;;;;;19.55;10.55;;;13.80;99.90;;;;;;5494478;26;20013;-74
2024/04/12 07:51:20;;;;;;;20.40;11.27;;;13.90;99.90;;;;;;5496084;26;20012;-74
2024/04/12 07:53:47;;;;;;;20.95;11.27;;;13.90;99.90;;;;;;5496147;26;20017;-72
2024/04/12 07:56:16;;;;;;;22.45;10.77;;;13.90;99.90;;;;;;5493383;26;19995;-71
2024/04/12 07:58:43;;;;;;;20.10;10.80;;;13.90;99.90;;;;;;5497887;26;19990;-72
2024/04/12 08:01:15;;;;;;;19.00;11.13;;;14.00;99.90;;;;;;5496141;26;20070;-74
2024/04/12 08:03:42;;;;;;;20.38;10.70;;;14.00;99.90;;;;;;5495497;26;20038;-73
2024/04/12 08:06:36;;;;;;;19.35;10.98;;;13.90;99.90;;;;;;5498097;26;20054;-73
2024/04/12 08:09:05;;;;;;;20.42;11.25;;;14.00;99.90;;;;;;5497662;26;20276;-73
2024/04/12 08:11:34;;;;;;;18.95;10.73;;;14.00;99.90;;;;;;5496950;26;19994;-72
2024/04/12 08:14:08;;;;;;;18.85;10.27;;;14.00;99.90;;;;;;5495282;26;20005;-71
2024/04/12 08:16:38;;;;;;;17.67;10.27;;;13.90;99.90;;;;;;5497870;26;20006;-72
2024/04/12 08:19:03;;;;;;;17.65;10.02;;;13.90;99.90;;;;;;5497078;26;19998;-74
2024/04/12 08:21:31;;;;;;;21.35;11.00;;;14.00;99.90;;;;;;5492491;26;20014;-71
2024/04/12 08:23:58;;;;;;;18.75;10.25;;;14.00;99.90;;;;;;5493962;26;19998;-72
2024/04/12 08:26:27;;;;;;;20.38;11.20;;;13.90;99.90;;;;;;5496316;26;20002;-73
2024/04/12 08:28:56;;;;;;;24.38;11.60;;;13.90;99.90;;;;;;5498431;26;20002;-72
2024/04/12 08:31:23;;;;;;;24.02;11.70;;;13.80;99.90;;;;;;5498138;26;20021;-72
2024/04/12 08:33:52;;;;;;;23.15;11.82;;;13.80;99.90;;;;;;5497180;26;20005;-73
2024/04/12 08:36:18;;;;;;;22.98;10.85;;;13.80;99.90;;;;;;5497871;26;20013;-75
2024/04/12 08:39:12;;;;;;;22.95;11.90;;;13.80;99.90;;;;;;5495605;26;19998;-73
2024/04/12 08:41:38;;;;;;;25.42;12.93;;;13.80;99.90;;;;;;5498247;26;20026;-71
2024/04/12 08:44:10;;;;;;;22.65;12.68;;;13.80;99.90;;;;;;5496594;26;20063;-72
2024/04/12 08:46:37;;;;;;;22.45;12.65;;;13.80;99.90;;;;;;5497954;26;20111;-71
2024/04/12 08:49:03;;;;;;;22.98;13.25;;;13.90;99.90;;;;;;5492313;26;19998;-71
2024/04/12 08:51:32;;;;;;;22.70;12.63;;;13.80;99.90;;;;;;5496993;26;20030;-73
2024/04/12 08:54:04;;;;;;;22.50;12.90;;;13.90;99.90;;;;;;5497848;26;20458;-71
2024/04/12 08:56:29;;;;;;;25.17;12.68;;;13.90;99.90;;;;;;5492401;26;20018;-76
2024/04/12 08:59:08;;;;;;;23.80;13.18;;;13.90;99.90;;;;;;5496438;26;20005;-72
2024/04/12 09:01:40;;;;;;;22.80;11.98;;;13.90;99.90;;;;;;5497176;26;20013;-74
2024/04/12 09:04:12;;;;;;;24.00;13.02;;;13.90;99.90;;;;;;5493707;26;20059;-72
2024/04/12 09:06:38;;;;;;;22.35;12.55;;;13.90;99.90;;;;;;5495023;26;19999;-71
2024/04/12 09:09:04;;;;;;;21.65;12.13;;;13.90;99.90;;;;;;5495286;26;20008;-72
2024/04/12 09:11:32;;;;;;;25.25;12.32;;;14.00;99.90;;;;;;5490830;26;20009;-75
2024/04/12 09:14:09;;;;;;;23.73;12.40;;;13.90;99.90;;;;;;5493333;26;20498;-74
2024/04/12 09:16:44;;;;;;;23.08;12.45;;;13.90;99.90;;;;;;5497765;26;19994;-71
2024/04/12 09:19:14;;;;;;;21.75;11.52;;;13.90;99.90;;;;;;5497343;26;20002;-76
2024/04/12 09:21:58;;;;;;;24.70;12.15;;;13.90;99.90;;;;;;5498275;26;19998;-73
2024/04/12 09:24:31;;;;;;;21.40;11.52;;;13.90;99.90;;;;;;5496482;26;20070;-74
2024/04/12 09:27:00;;;;;;;23.30;12.38;;;13.90;99.90;;;;;;5493157;26;20047;-70
2024/04/12 09:29:28;;;;;;;20.92;11.38;;;13.90;99.90;;;;;;5494302;26;19997;-72
2024/04/12 09:34:46;;;;;;;20.70;12.32;;;13.90;99.90;;;;;;5496276;26;20020;-72
2024/04/12 09:37:29;;;;;;;20.83;10.93;;;14.00;99.90;;;;;;5495584;26;19997;-71
2024/04/12 09:42:44;;;;;;;19.85;11.75;;;14.00;99.90;;;;;;5497932;26;20451;-73
2024/04/12 09:45:16;;;;;;;20.95;11.82;;;14.10;99.90;;;;;;5496444;26;20002;-72
2024/04/12 10:37:44;;;;;;;19.65;10.38;;;15.90;99.90;;;;;;5496909;26;20013;-76
2024/04/12 10:40:10;;;;;;;18.02;10.63;;;16.00;99.90;;;;;;5495099;26;20006;-72
2024/04/12 10:42:42;;;;;;;17.55;10.50;;;16.20;99.90;;;;;;5493411;26;20002;-73
2024/04/12 10:45:09;;;;;;;15.63;9.13;;;16.50;99.90;;;;;;5495606;26;20037;-75
2024/04/12 10:47:39;;;;;;;16.88;10.18;;;16.60;99.90;;;;;;5496766;26;19994;-71
2024/04/12 10:50:05;;;;;;;19.60;10.60;;;16.60;99.90;;;;;;5493183;26;20045;-74
2024/04/12 10:52:31;;;;;;;15.25;9.70;;;16.60;99.90;;;;;;5497120;26;20020;-72
2024/04/12 10:54:59;;;;;;;14.43;8.63;;;16.80;99.90;;;;;;5498905;26;20002;-72
2024/04/12 10:57:24;;;;;;;14.50;9.48;;;16.90;99.90;;;;;;5499317;26;19998;-74
2024/04/12 10:59:53;;;;;;;16.35;8.57;;;16.90;99.90;;;;;;5500594;26;20020;-71
2024/04/12 11:02:19;;;;;;;14.27;8.70;;;16.90;99.90;;;;;;5500102;26;19998;-73
2024/04/12 11:05:05;;;;;;;15.02;9.30;;;16.90;99.90;;;;;;5498479;26;20021;-73
2024/04/12 11:07:31;;;;;;;16.02;9.60;;;16.90;99.90;;;;;;5498335;26;20025;-74
2024/04/12 11:10:03;;;;;;;13.13;8.88;;;17.10;99.90;;;;;;5497989;26;20396;-72
2024/04/12 11:12:30;;;;;;;12.80;8.00;;;17.30;99.90;;;;;;5497770;26;20641;-73
2024/04/12 11:31:30;;;;;;;12.68;7.82;;;17.80;99.90;;;;;;5496521;26;20087;-73
2024/04/12 11:34:06;;;;;;;17.77;8.10;;;17.80;99.90;;;;;;5493387;26;20048;-73
2024/04/12 11:36:39;;;;;;;14.10;7.78;;;17.90;99.90;;;;;;5493976;26;20009;-74
2024/04/12 11:39:17;;;;;;;16.23;7.63;;;18.00;99.90;;;;;;5491467;26;20039;-74
2024/04/12 11:41:44;;;;;;;12.48;7.38;;;18.20;99.90;;;;;;5496948;26;19997;-73
2024/04/12 11:44:17;;;;;;;13.05;7.75;;;18.40;99.90;;;;;;5496942;26;20156;-74
2024/04/12 11:46:46;;;;;;;17.55;8.20;;;18.50;99.90;;;;;;5499542;26;20006;-75
2024/04/12 11:49:28;;;;;;;12.48;7.70;;;18.50;99.90;;;;;;5499137;26;20002;-75
2024/04/12 11:52:02;;;;;;;13.90;7.82;;;18.70;99.90;;;;;;5498824;26;20014;-71
2024/04/12 11:54:29;;;;;;;;;;;18.80;99.90;;;;;;5497751;26;20047;-72
2024/04/12 11:56:59;;;;;;;16.15;7.88;;;18.70;99.90;;;;;;5494892;26;20260;-74
2024/04/12 11:59:29;;;;;;;13.60;7.63;;;18.70;99.90;;;;;;5497276;26;22104;-72
2024/04/12 12:01:58;;;;;;;11.88;7.15;;;18.70;99.90;;;;;;5498580;26;20048;-75
2024/04/12 12:04:31;;;;;;;15.52;8.48;;;18.70;99.90;;;;;;5492537;26;20005;-72
2024/04/12 12:07:04;;;;;;;16.45;8.38;;;18.70;99.90;;;;;;5496152;26;20055;-72
2024/04/12 12:09:36;;;;;;;13.60;8.07;;;18.50;99.90;;;;;;5494578;26;20047;-72
2024/04/12 12:12:06;;;;;;;13.18;8.10;;;18.50;99.90;;;;;;5496539;26;20013;-73
2024/04/12 12:14:33;;;;;;;16.02;7.68;;;18.50;99.90;;;;;;5493578;26;20005;-71
2024/04/12 12:16:59;;;;;;;15.20;8.15;;;18.50;99.90;;;;;;5492151;26;20002;-70
2024/04/12 12:19:25;;;;;;;16.02;8.35;;;18.60;99.90;;;;;;5492816;26;20024;-74
2024/04/12 12:21:51;;;;;;;14.20;8.63;;;18.70;99.90;;;;;;5495739;26;19998;-69
2024/04/12 12:24:16;;;;;;;13.90;7.93;;;18.90;99.90;;;;;;5495481;26;20492;-72
2024/04/12 12:26:44;;;;;;;13.30;8.10;;;19.00;99.90;;;;;;5491097;26;19995;-73
2024/04/12 12:29:13;;;;;;;13.07;8.23;;;19.40;99.90;;;;;;5493920;26;20170;-72
2024/04/12 12:31:38;;;;;;;16.40;8.93;;;19.90;99.90;;;;;;5494749;26;20487;-71
2024/04/12 12:34:05;;;;;;;12.02;8.13;;;20.20;99.90;;;;;;5489758;26;20006;-72
2024/04/12 12:36:30;;;;;;;13.88;8.43;;;20.50;99.90;;;;;;5488844;26;20024;-71
2024/04/12 12:38:58;;;;;;;14.63;9.23;;;20.60;99.90;;;;;;5491190;26;20443;-72
2024/04/12 12:41:25;;;;;;;13.10;8.70;;;20.70;99.90;;;;;;5494427;26;19998;-74
2024/04/12 12:43:52;;;;;;;20.67;9.35;;;20.80;99.90;;;;;;5490181;26;20362;-73
2024/04/12 12:46:24;;;;;;;14.55;9.73;;;20.90;99.90;;;;;;5495602;26;20020;-71
2024/04/12 12:48:52;;;;;;;13.48;9.10;;;20.90;99.90;;;;;;5495069;26;19994;-72
2024/04/12 12:51:26;;;;;;;13.68;8.48;;;21.00;99.90;;;;;;5497344;26;20064;-70
2024/04/12 12:53:59;;;;;;;17.73;8.68;;;21.10;99.90;;;;;;5495618;26;20110;-69
2024/04/12 12:56:31;;;;;;;14.38;8.60;;;21.10;99.90;;;;;;5487902;26;20008;-69
2024/04/12 12:58:59;;;;;;;12.55;8.40;;;21.10;99.90;;;;;;5485735;26;20013;-70
2024/04/12 13:01:34;;;;;;;14.07;9.18;;;21.30;99.90;;;;;;5490284;26;19994;-71
2024/04/12 13:04:07;;;;;;;14.98;8.55;;;21.40;99.90;;;;;;5494200;26;20002;-74
2024/04/12 13:06:36;;;;;;;13.73;8.40;;;21.30;99.90;;;;;;5495167;26;20059;-70
2024/04/12 13:09:06;;;;;;;13.40;8.30;;;21.20;99.90;;;;;;5497639;26;20006;-75
2024/04/12 13:11:32;;;;;;;14.13;8.00;;;21.20;99.90;;;;;;5496795;26;19998;-73
2024/04/12 13:14:09;;;;;;;12.30;8.20;;;21.10;99.90;;;;;;5496822;26;20013;-76
2024/04/12 13:16:41;;;;;;;12.10;7.93;;;21.00;99.90;;;;;;5493426;26;21153;-73
2024/04/12 13:19:07;;;;;;;14.82;8.57;;;21.10;99.90;;;;;;5492979;26;20010;-76
2024/04/12 13:21:33;;;;;;;16.80;9.02;;;21.20;99.90;;;;;;5494496;26;20471;-71
2024/04/12 13:24:00;;;;;;;14.75;8.65;;;21.30;99.90;;;;;;5492921;26;20006;-72
2024/04/12 13:26:31;;;;;;;15.15;9.32;;;21.20;99.90;;;;;;5489671;26;20326;-73
2024/04/12 13:28:57;;;;;;;15.52;9.13;;;21.30;99.90;;;;;;5495092;26;20424;-71
2024/04/12 13:31:32;;;;;;;13.52;8.90;;;21.30;99.90;;;;;;5493272;26;19999;-72
2024/04/12 13:34:00;;;;;;;13.63;8.88;;;21.30;99.90;;;;;;5494721;26;19997;-76
2024/04/12 13:36:25;;;;;;;11.40;7.57;;;21.30;99.90;;;;;;5498779;26;20043;-72
2024/04/12 13:38:54;;;;;;;10.95;8.05;;;21.40;99.90;;;;;;5498028;26;20009;-72
2024/04/12 13:41:23;;;;;;;14.10;9.13;;;21.50;99.90;;;;;;5497363;26;20001;-73
2024/04/12 13:43:49;;;;;;;14.27;8.98;;;21.50;99.90;;;;;;5497920;26;20002;-69
2024/04/12 13:51:51;;;;;;;14.18;8.38;;;21.90;99.90;;;;;;5497301;26;20074;-72
2024/04/12 13:54:23;;;;;;;13.75;7.43;;;21.90;99.90;;;;;;5497548;26;19998;-72
2024/04/12 13:56:49;;;;;;;13.80;6.95;;;21.80;99.90;;;;;;5497306;26;20013;-73
2024/04/12 13:59:15;;;;;;;16.15;6.20;;;21.90;99.90;;;;;;5496907;26;20034;-72
2024/04/12 14:01:40;;;;;;;11.25;5.63;;;21.90;99.90;;;;;;5495226;26;20009;-70
2024/04/12 14:04:09;;;;;;;7.47;5.68;;;21.80;99.90;;;;;;5495120;26;19994;-73
2024/04/12 14:06:38;;;;;;;9.80;6.07;;;21.80;99.90;;;;;;5496342;26;20042;-72
2024/04/12 14:09:21;;;;;;;9.18;5.95;;;21.70;99.90;;;;;;5495621;26;20002;-71